Historyczne dane pomiarowe

Dodano dane terminowe – wersja testowa.

Dane z okresu 1951-2019

Wersja bazy: 1.34 [2019-03-16, lista zmian], aktualizacja planowana na 2019-04-15

Dane meteo z obszaru Polski uzyskane na podstawie danych udostępnionych przez Instytut Meteorologii i Gospodarki Wodnej – Państwowy Instytut Badawczy.

 

Wybierz Datę:    

       

TemperaturaWilgotnośćWiatrCiśnienieOpadyŚniegCzas trwania zjawisk
 Stacja t tx tn tng RH VA  wxwx mslp ppp RRR   cm mm wxwxwxwxwxwxwx
1983-08-14 15.4 20.4 9.0 4.5 65.8- 2.3 3.0---- 0.0------------
1983-08-13 16.1 18.1 11.9 10.2 63.3- 4.3 5.0---- 0.5------------
1983-08-12 16.0 22.8 9.8 4.3 83.8- 6.0 4.3---- 0.0------------
1983-08-11 19.7 27.2 11.5 7.2 71.0- 1.3 2.0---- 0.0------------
1983-08-10 20.8 27.9 13.3 10.4 61.3- 1.3 3.0---- 0.0------------
1983-08-09 19.0 26.4 12.9 11.8 74.0- 5.0 2.7---- 0.0------------
1983-08-08 19.4 24.4 14.8 10.6 74.0- 2.7 2.7---- 0.0------------
1983-08-07 18.2 25.2 10.3 7.1 68.3- 1.3 3.3---- 0.0------------
1983-08-06 16.8 22.2 10.2 7.9 73.5- 3.7 2.7---- 0.0------------
1983-08-05 15.8 16.9 13.8 13.9 88.5- 6.7 2.3---- 0.0------------
1983-08-04 13.1 14.0 11.8 12.1 95.5- 8.0 6.0---- 8.2------------
1983-08-03 15.0 21.2 12.6 13.1 84.3- 8.0 3.0---- 35.0------------
1983-08-02 20.8 30.1 16.9 16.6 53.5- 5.0 3.3---- 0.1------------
1983-08-01 25.0 34.3 16.7 11.1 42.8- 4.7 6.0---- 5.9------------
1983-07-31 17.8 26.5 7.7 2.5 66.5- 0.7 2.0---- 0.0------------
1983-07-30 16.8 20.0 15.1 13.2 72.3- 5.3 6.3---- 0.0------------
1983-07-29 16.0 19.7 11.4 4.5 88.5- 7.0 5.7---- 5.3------------
1983-07-28 19.5 24.6 15.7 10.9 74.0- 5.3 5.3---- 0.0------------
1983-07-27 24.3 32.7 16.4 12.2 56.5- 3.3 4.3---- 0.0------------
1983-07-26 20.6 29.5 7.2 1.3 60.0- 0.3 1.7---- 0.0------------
1983-07-25 19.4 26.2 10.4 8.1 61.8- 2.3 1.7---- 0.0------------
1983-07-24 19.2 24.8 12.0 7.3 66.3- 4.3 2.3---- 0.2------------
1983-07-23 18.9 24.4 10.4 6.5 69.0- 1.0 3.7---- 0.0------------
1983-07-22 15.4 16.7 13.4 12.5 93.0- 7.0 3.0---- 1.1------------
1983-07-21 14.1 19.1 8.3 5.3 64.8- 5.0 6.3---- 1.4------------
1983-07-20 13.5 18.8 9.8 9.6 65.8- 6.3 4.7---- 4.3------------
1983-07-19 19.8 26.5 18.7 15.1 69.0- 5.3 4.7---- 3.2------------
1983-07-18 23.4 30.0 15.4 11.5 55.3- 5.3 4.3---- 0.0------------
1983-07-17 18.8 25.2 8.1 1.5 65.0- 1.0 1.3---- 0.0------------
1983-07-16 20.6 26.2 18.9 13.6 75.8- 4.3 4.0---- 0.0------------
1983-07-15 19.5 26.7 12.2 4.5 64.3- 3.3 4.3---- 0.0------------
1983-07-14 20.3 25.5 16.4 11.1 69.3- 3.0 2.7---- 0.0------------
1983-07-13 19.7 25.2 14.6 7.6 80.3- 6.3 5.0---- 0.3------------
1983-07-12 22.6 29.5 14.5 9.5 64.0- 1.7 4.3---- 0.0------------
1983-07-11 22.1 29.6 13.1 7.2 62.5- 3.0 3.0---- 0.0------------
1983-07-10 23.6 30.8 12.8 7.3 45.5- 2.0 2.3---- 0.0------------
1983-07-09 20.4 28.3 11.3 8.1 59.3- 3.7 3.0---- 0.0------------
1983-07-08 20.5 27.0 9.8 2.5 46.5- 0.0 4.0---- 0.0------------
1983-07-07 24.1 29.9 17.4 13.9 48.5- 1.3 3.3---- 0.0------------
1983-07-06 22.3 29.8 10.2 6.0 57.3- 0.3 3.7---- 0.0------------
1983-07-05 18.5 25.0 10.0 7.7 65.5- 2.3 2.7---- 0.0------------
1983-07-04 15.9 22.0 9.1 4.3 72.8- 5.0 2.3---- 0.0------------
1983-07-03 18.6 23.5 13.3 9.3 68.5- 6.7 2.7---- 0.0------------
1983-07-02 15.4 21.1 5.9 1.0 69.8- 3.3 3.7---- 0.0------------
1983-07-01 15.8 19.8 13.0 6.8 84.0- 7.0 2.0---- 0.6------------
1983-06-30 17.2 21.4 8.5 11.8 79.0- 7.3 3.7---- 0.3------------
1983-06-29 13.4 18.5 9.2 6.8 74.0- 5.3 4.7---- 0.8------------
1983-06-28 13.6 17.7 10.3 8.1 72.8- 4.7 5.7---- 0.2------------
1983-06-27 15.3 21.6 12.7 8.9 82.0- 7.0 3.3---- 0.5------------
1983-06-26 16.3 22.6 8.0 3.2 68.5- 0.7 2.7---- 0.0------------
1983-06-25 18.2 24.2 11.4 7.6 61.8- 4.0 4.0---- 0.3------------
1983-06-24 20.3 28.4 7.6 1.2 42.0- 0.7 2.3---- 0.0------------
1983-06-23 17.6 24.0 8.1 3.5 50.3- 1.0 2.3---- 0.0------------
1983-06-22 14.8 21.5 6.2 4.0 55.3- 0.0 3.7---- 0.0------------
1983-06-21 18.9 26.4 12.2 11.6 60.5- 2.0 4.3---- 0.0------------
1983-06-20 18.1 24.7 9.4 4.8 63.5- 1.0 3.0---- 0.0------------
1983-06-19 16.8 23.0 6.4 0.0 54.8- 2.3 3.3---- 0.0------------
1983-06-18 15.0 19.4 10.1 7.0 74.3- 7.0 4.0---- 0.0------------
1983-06-17 12.9 17.0 8.3 6.5 74.0- 4.0 3.0---- 0.2------------
1983-06-16 11.7 15.9 6.4 6.2 83.5- 6.3 3.3---- 0.6------------
372.2 ms

 

Źródłem pochodzenia danych jest Instytut Meteorologii i Gospodarki Wodnej – Państwowy Instytut Badawczy. Dane Instytutu Meteorologii i Gospodarki Wodnej – Państwowego Instytutu Badawczego zostały przetworzone.

Dane źródłowe można odnaleźć na stronie https://dane.imgw.pl